createdAt,value
2018-03-12T00:00:45.325Z,15.67
2018-03-12T00:03:11.289Z,17.00
2018-03-12T00:05:37.292Z,16.03
2018-03-12T00:08:03.247Z,16.40
2018-03-12T00:10:29.211Z,15.30
2018-03-12T00:12:55.927Z,14.43
2018-03-12T00:15:21.954Z,15.87
2018-03-12T00:17:47.942Z,15.90
2018-03-12T00:20:14.679Z,15.93
2018-03-12T00:22:40.659Z,15.20
2018-03-12T00:25:06.627Z,15.37
2018-03-12T00:27:32.624Z,16.07
2018-03-12T00:29:58.584Z,16.40
2018-03-12T00:32:24.528Z,16.50
2018-03-12T00:34:50.515Z,16.53
2018-03-12T00:37:16.489Z,16.50
2018-03-12T00:39:42.472Z,16.47
2018-03-12T00:42:09.157Z,17.00
2018-03-12T00:44:35.133Z,16.70
2018-03-12T00:47:01.086Z,17.57
2018-03-12T00:49:27.048Z,16.63
2018-03-12T00:51:53.019Z,16.63
2018-03-12T00:54:18.964Z,16.70
2018-03-12T00:56:44.936Z,16.67
2018-03-12T00:59:11.629Z,15.93
2018-03-12T01:01:37.616Z,16.20
2018-03-12T01:04:03.584Z,16.33
2018-03-12T01:06:29.556Z,16.40
2018-03-12T01:11:51.008Z,17.03
2018-03-12T01:14:16.987Z,15.93
2018-03-12T01:16:43.672Z,16.70
2018-03-12T01:19:09.648Z,16.03
2018-03-12T01:21:35.599Z,17.10
2018-03-12T01:24:01.581Z,15.70
2018-03-12T01:26:27.562Z,15.83
2018-03-12T01:28:53.600Z,15.73
2018-03-12T01:31:19.564Z,15.20
2018-03-12T01:33:46.316Z,16.00
2018-03-12T01:36:13.015Z,15.20
2018-03-12T01:38:38.969Z,16.53
2018-03-12T01:41:04.936Z,17.03
2018-03-12T01:43:31.616Z,16.83
2018-03-12T01:45:57.604Z,16.07
2018-03-12T01:48:23.564Z,17.97
2018-03-12T01:50:50.280Z,16.30
2018-03-12T01:53:16.223Z,15.87
2018-03-12T01:55:42.198Z,16.20
2018-03-12T01:58:09.005Z,16.97
2018-03-12T02:00:35.668Z,16.47
2018-03-12T02:03:01.660Z,17.67
2018-03-12T02:05:27.695Z,15.77
2018-03-12T02:07:53.685Z,17.37
2018-03-12T02:10:19.715Z,17.50
2018-03-12T02:12:45.648Z,16.30
2018-03-12T02:15:11.588Z,16.23
2018-03-12T02:17:37.581Z,16.00
2018-03-12T02:20:03.538Z,16.40
2018-03-12T02:22:29.496Z,16.53
2018-03-12T02:24:55.512Z,15.40
2018-03-12T02:27:21.501Z,15.10
2018-03-12T02:29:47.476Z,15.20
2018-03-12T02:32:13.439Z,16.00
2018-03-12T02:34:39.409Z,15.70
2018-03-12T02:37:05.356Z,15.37
2018-03-12T02:39:31.324Z,14.70
2018-03-12T02:41:57.381Z,15.57
2018-03-12T02:44:23.386Z,15.03
2018-03-12T02:46:49.337Z,16.20
2018-03-12T02:49:15.290Z,14.37
2018-03-12T02:51:41.256Z,17.30
2018-03-12T02:54:07.204Z,14.80
2018-03-12T02:56:33.168Z,14.90
2018-03-12T02:58:59.121Z,14.93
2018-03-12T03:01:25.114Z,14.97
2018-03-12T03:03:51.114Z,15.43
2018-03-12T03:06:17.833Z,15.60
2018-03-12T03:08:43.823Z,16.33
2018-03-12T03:11:10.518Z,16.07
2018-03-12T03:13:36.519Z,16.87
2018-03-12T03:16:02.493Z,15.20
2018-03-12T03:18:28.526Z,14.90
2018-03-12T03:20:54.533Z,16.10
2018-03-12T03:23:20.565Z,15.67
2018-03-12T03:25:46.533Z,16.30
2018-03-12T03:28:12.527Z,15.77
2018-03-12T03:30:39.230Z,17.17
2018-03-12T03:33:05.213Z,15.67
2018-03-12T03:35:31.916Z,17.20
2018-03-12T03:37:57.901Z,15.83
2018-03-12T03:40:24.631Z,16.30
2018-03-12T03:42:50.629Z,16.07
2018-03-12T03:45:16.617Z,15.87
2018-03-12T03:47:42.618Z,15.10
2018-03-12T03:50:08.613Z,14.30
2018-03-12T03:52:34.605Z,15.97
2018-03-12T03:55:00.589Z,16.90
2018-03-12T03:57:26.590Z,16.97
2018-03-12T03:59:52.654Z,15.53
2018-03-12T04:02:18.633Z,14.77
2018-03-12T04:04:44.641Z,16.33
2018-03-12T04:07:10.611Z,22.90
2018-03-12T04:09:36.579Z,22.33
2018-03-12T04:12:02.569Z,23.67
2018-03-12T04:14:28.561Z,29.80
2018-03-12T04:16:55.330Z,30.20
2018-03-12T04:19:21.301Z,24.20
2018-03-12T04:21:47.281Z,22.87
2018-03-12T04:24:13.994Z,18.67
2018-03-12T04:26:40.030Z,16.50
2018-03-12T04:29:12.094Z,16.63
2018-03-12T04:31:38.102Z,17.70
2018-03-12T04:34:04.076Z,17.10
2018-03-12T04:36:30.061Z,17.73
2018-03-12T04:38:56.853Z,17.93
2018-03-12T04:41:22.853Z,19.60
2018-03-12T04:43:49.977Z,19.63
2018-03-12T04:46:15.957Z,19.20
2018-03-12T04:48:42.673Z,18.20
2018-03-12T04:51:08.666Z,18.90
2018-03-12T04:53:34.633Z,17.00
2018-03-12T04:56:00.622Z,17.23
2018-03-12T04:58:27.337Z,19.00
2018-03-12T05:00:53.428Z,17.27
2018-03-12T05:03:19.414Z,18.43
2018-03-12T05:05:45.426Z,19.00
2018-03-12T05:08:11.401Z,19.83
2018-03-12T05:10:37.410Z,20.80
2018-03-12T05:13:03.394Z,20.47
2018-03-12T05:15:30.126Z,17.67
2018-03-12T05:17:56.159Z,17.57
2018-03-12T05:20:22.275Z,16.67
2018-03-12T05:22:48.217Z,17.03
2018-03-12T05:25:14.255Z,16.30
2018-03-12T05:27:40.216Z,17.93
2018-03-12T05:30:06.404Z,17.37
2018-03-12T05:32:32.464Z,15.37
2018-03-12T05:34:58.462Z,16.50
2018-03-12T05:37:24.559Z,17.20
2018-03-12T05:39:51.338Z,18.30
2018-03-12T05:42:18.090Z,18.73
2018-03-12T05:44:44.838Z,17.80
2018-03-12T05:47:10.799Z,18.37
2018-03-12T05:49:37.563Z,18.47
2018-03-12T05:52:03.570Z,18.73
2018-03-12T05:54:30.269Z,18.27
2018-03-12T05:56:56.354Z,18.30
2018-03-12T05:59:22.326Z,17.57
2018-03-12T06:01:48.314Z,18.57
2018-03-12T06:04:15.065Z,19.40
2018-03-12T06:06:41.093Z,19.33
2018-03-12T06:09:07.065Z,18.37
2018-03-12T06:11:33.790Z,21.00
2018-03-12T06:13:59.808Z,21.90
2018-03-12T06:16:25.818Z,21.93
2018-03-12T06:18:51.833Z,22.10
2018-03-12T06:21:18.558Z,21.83
2018-03-12T06:23:44.561Z,23.47
2018-03-12T06:26:10.535Z,24.47
2018-03-12T06:28:36.494Z,23.77
2018-03-12T06:31:03.238Z,22.37
2018-03-12T06:33:29.939Z,22.60
2018-03-12T06:35:55.964Z,22.13
2018-03-12T06:38:22.070Z,22.83
2018-03-12T06:40:48.805Z,23.83
2018-03-12T06:43:14.879Z,24.13
2018-03-12T06:45:40.913Z,25.17
2018-03-12T06:48:06.886Z,26.43
2018-03-12T06:50:32.912Z,25.03
2018-03-12T06:52:58.903Z,25.40
2018-03-12T06:55:25.716Z,23.87
2018-03-12T06:57:51.685Z,24.83
2018-03-12T07:00:18.445Z,27.13
2018-03-12T07:02:44.426Z,30.80
2018-03-12T07:05:10.416Z,27.80
2018-03-12T07:07:37.131Z,28.20
2018-03-12T07:10:03.126Z,32.00
2018-03-12T07:12:29.129Z,28.33
2018-03-12T07:14:55.206Z,27.63
2018-03-12T07:17:21.274Z,28.90
2018-03-12T07:19:47.277Z,28.63
2018-03-12T07:22:13.277Z,33.47
2018-03-12T07:24:39.265Z,34.07
2018-03-12T07:27:05.265Z,34.40
2018-03-12T07:29:32.005Z,30.13
2018-03-12T07:31:57.975Z,31.57
2018-03-12T07:34:24.028Z,27.33
2018-03-12T07:36:50.037Z,30.40
2018-03-12T07:39:16.743Z,28.33
2018-03-12T07:41:42.755Z,27.20
2018-03-12T07:44:08.774Z,28.90
2018-03-12T07:46:34.762Z,29.57
2018-03-12T07:49:00.773Z,30.97
2018-03-12T07:51:26.777Z,31.83
2018-03-12T07:53:53.535Z,31.13
2018-03-12T07:56:19.513Z,30.33
2018-03-12T07:58:45.500Z,31.07
2018-03-12T08:01:12.236Z,29.30
2018-03-12T08:03:38.225Z,29.70
2018-03-12T08:06:04.250Z,30.47
2018-03-12T08:08:30.214Z,28.90
2018-03-12T08:10:56.227Z,31.60
2018-03-12T08:13:22.202Z,31.40
2018-03-12T08:15:48.820Z,32.03
2018-03-12T08:18:14.841Z,33.97
2018-03-12T08:20:41.586Z,29.13
2018-03-12T08:23:07.552Z,30.03
2018-03-12T08:25:33.586Z,31.27
2018-03-12T08:27:59.557Z,30.40
2018-03-12T08:30:26.324Z,29.60
2018-03-12T08:32:52.491Z,27.63
2018-03-12T08:35:18.515Z,27.83
2018-03-12T08:37:45.235Z,29.50
2018-03-12T08:40:11.215Z,28.50
2018-03-12T08:42:37.207Z,29.30
2018-03-12T08:45:03.182Z,28.17
2018-03-12T08:47:29.176Z,27.63
2018-03-12T08:49:55.176Z,28.80
2018-03-12T08:52:21.206Z,27.80
2018-03-12T08:54:47.178Z,29.27
2018-03-12T08:57:13.245Z,28.40
2018-03-12T08:59:39.203Z,27.60
2018-03-12T09:02:05.209Z,27.77
2018-03-12T09:04:38.193Z,27.33
2018-03-12T09:07:04.193Z,27.53
2018-03-12T09:09:30.210Z,27.80
2018-03-12T09:11:56.942Z,26.10
2018-03-12T09:14:23.747Z,25.53
2018-03-12T09:16:49.705Z,25.63
2018-03-12T09:19:16.489Z,26.10
2018-03-12T09:21:42.455Z,27.20
2018-03-12T09:24:08.425Z,28.40
2018-03-12T09:26:34.426Z,30.30
2018-03-12T09:29:00.405Z,31.00
2018-03-12T09:31:26.455Z,30.07
2018-03-12T09:33:53.204Z,28.37
2018-03-12T09:36:19.190Z,28.93
2018-03-12T09:38:45.193Z,29.97
2018-03-12T09:41:11.190Z,27.67
2018-03-12T09:43:37.165Z,28.90
2018-03-12T09:46:03.147Z,26.03
2018-03-12T09:48:29.126Z,28.23
2018-03-12T09:50:55.141Z,26.30
2018-03-12T09:53:21.122Z,25.17
2018-03-12T09:55:47.851Z,26.27
2018-03-12T09:58:13.797Z,25.57
2018-03-12T10:00:39.782Z,27.60
2018-03-12T10:03:05.741Z,26.30
2018-03-12T10:05:31.749Z,24.57
2018-03-12T10:07:57.719Z,24.00
2018-03-12T10:10:30.694Z,24.77
2018-03-12T10:12:56.684Z,26.00
2018-03-12T10:15:23.449Z,25.10
2018-03-12T10:17:50.146Z,23.50
2018-03-12T10:20:16.110Z,23.60
2018-03-12T10:22:42.096Z,26.30
2018-03-12T10:25:08.045Z,25.40
2018-03-12T10:27:34.068Z,26.23
2018-03-12T10:30:00.077Z,26.13
2018-03-12T10:32:26.789Z,26.10
2018-03-12T10:34:52.746Z,25.67
2018-03-12T10:37:20.306Z,30.47
2018-03-12T10:39:46.264Z,26.97
2018-03-12T10:42:12.231Z,27.07
2018-03-12T10:44:38.227Z,18.90
2018-03-12T10:47:04.218Z,23.70
2018-03-12T10:49:30.243Z,25.73
2018-03-12T10:51:56.202Z,19.93
2018-03-12T10:54:22.259Z,16.90
2018-03-12T10:56:48.239Z,18.47
2018-03-12T10:59:14.986Z,9.47
2018-03-12T11:01:45.503Z,10.00
2018-03-12T11:04:11.468Z,8.30
2018-03-12T11:06:41.016Z,5.40
2018-03-12T11:09:06.989Z,5.30
2018-03-12T11:11:32.990Z,6.23
2018-03-12T11:13:59.049Z,5.67
2018-03-12T11:16:25.090Z,5.13
2018-03-12T11:18:51.102Z,6.03
2018-03-12T11:21:17.089Z,4.20
2018-03-12T11:23:43.100Z,5.23
2018-03-12T11:26:09.109Z,6.20
2018-03-12T11:28:35.063Z,5.70
2018-03-12T11:31:01.020Z,5.47
2018-03-12T11:33:27.014Z,6.27
2018-03-12T11:35:52.994Z,6.97
2018-03-12T11:38:19.001Z,7.00
2018-03-12T11:40:45.022Z,7.60
2018-03-12T11:43:10.977Z,6.73
2018-03-12T11:45:36.971Z,7.30
2018-03-12T11:48:03.694Z,7.67
2018-03-12T11:50:29.646Z,7.53
2018-03-12T11:52:55.638Z,6.30
2018-03-12T11:55:21.679Z,7.13
2018-03-12T11:57:47.673Z,9.27
2018-03-12T12:00:14.392Z,7.90
2018-03-12T12:02:40.366Z,6.20
2018-03-12T12:05:08.162Z,7.37
2018-03-12T12:07:34.118Z,5.83
2018-03-12T12:10:00.081Z,6.03
2018-03-12T12:12:26.101Z,6.83
2018-03-12T12:14:52.068Z,7.60
2018-03-12T12:17:18.837Z,7.80
2018-03-12T12:19:45.561Z,7.80
2018-03-12T12:22:11.557Z,7.10
2018-03-12T12:24:37.509Z,6.00
2018-03-12T12:27:03.497Z,7.07
2018-03-12T12:29:30.266Z,7.27
2018-03-12T12:31:56.262Z,5.53
2018-03-12T12:34:22.253Z,6.27
2018-03-12T12:36:48.252Z,5.90
2018-03-12T12:39:15.001Z,6.03
2018-03-12T12:41:41.689Z,5.60
2018-03-12T12:44:07.653Z,7.03
2018-03-12T12:46:33.643Z,5.40
2018-03-12T12:48:59.624Z,5.43
2018-03-12T12:51:25.626Z,5.77
2018-03-12T12:53:51.603Z,6.47
2018-03-12T12:56:17.593Z,6.57
2018-03-12T12:58:43.612Z,5.43
2018-03-12T13:01:10.351Z,4.90
2018-03-12T13:03:36.312Z,6.50
2018-03-12T13:06:03.092Z,5.70
2018-03-12T13:08:29.061Z,5.83
2018-03-12T13:10:55.065Z,5.70
2018-03-12T13:13:21.018Z,6.20
2018-03-12T13:15:47.034Z,5.37
2018-03-12T13:18:13.054Z,5.40
2018-03-12T13:20:39.042Z,5.60
2018-03-12T13:23:05.061Z,4.87
2018-03-12T13:25:31.794Z,5.20
2018-03-12T13:27:57.803Z,5.60
2018-03-12T13:30:24.547Z,6.33
2018-03-12T13:32:51.243Z,4.90
2018-03-12T13:35:17.266Z,5.90
2018-03-12T13:37:43.295Z,5.30
2018-03-12T13:40:09.249Z,4.93
2018-03-12T13:42:35.225Z,5.57
2018-03-12T13:45:01.206Z,5.17
2018-03-12T13:47:27.201Z,5.20
2018-03-12T13:49:53.310Z,5.10
2018-03-12T13:52:19.285Z,5.57
2018-03-12T13:54:45.273Z,4.80
2018-03-12T13:57:11.253Z,6.03
2018-03-12T13:59:37.240Z,5.30
2018-03-12T14:02:03.262Z,5.67
2018-03-12T14:04:29.264Z,4.83
2018-03-12T14:06:55.246Z,6.40
2018-03-12T14:09:21.249Z,5.50
2018-03-12T14:11:47.953Z,5.57
2018-03-12T14:14:13.913Z,6.10
2018-03-12T14:16:39.928Z,4.57
2018-03-12T14:19:05.917Z,4.80
2018-03-12T14:21:32.618Z,5.60
2018-03-12T14:23:58.614Z,4.43
2018-03-12T14:26:24.649Z,4.70
2018-03-12T14:28:50.705Z,4.50
2018-03-12T14:31:16.709Z,5.60
2018-03-12T14:33:43.436Z,4.40
2018-03-12T14:36:09.397Z,5.70
2018-03-12T14:38:36.117Z,10.87
2018-03-12T14:41:02.072Z,9.97
2018-03-12T14:43:28.078Z,5.97
2018-03-12T14:45:54.089Z,5.00
2018-03-12T14:48:20.113Z,4.50
2018-03-12T14:50:46.098Z,4.83
2018-03-12T14:53:12.101Z,4.77
2018-03-12T14:55:38.045Z,4.97
2018-03-12T14:58:04.049Z,4.90
2018-03-12T15:00:30.773Z,5.07
2018-03-12T15:02:56.867Z,6.03
2018-03-12T15:05:22.899Z,4.30
2018-03-12T15:07:48.893Z,4.50
2018-03-12T15:10:15.633Z,5.10
2018-03-12T15:12:41.636Z,4.27
2018-03-12T15:15:07.585Z,4.40
2018-03-12T15:17:33.565Z,4.10
2018-03-12T15:20:00.318Z,4.50
2018-03-12T15:22:27.046Z,4.20
2018-03-12T15:24:53.098Z,3.60
2018-03-12T15:27:19.111Z,2.97
2018-03-12T15:29:45.097Z,4.13
2018-03-12T15:32:11.062Z,3.50
2018-03-12T15:34:37.054Z,4.20
2018-03-12T15:37:03.772Z,3.10
2018-03-12T15:39:29.785Z,8.20
2018-03-12T15:41:55.775Z,4.30
2018-03-12T15:44:21.772Z,6.47
2018-03-12T15:46:47.729Z,4.10
2018-03-12T15:49:13.746Z,3.60
2018-03-12T15:51:39.749Z,3.50
2018-03-12T15:54:05.777Z,4.10
2018-03-12T15:56:31.843Z,4.03
2018-03-12T15:58:57.834Z,3.93
2018-03-12T16:01:24.609Z,3.83
2018-03-12T16:03:50.671Z,3.30
2018-03-12T16:06:16.626Z,4.03
2018-03-12T16:08:42.615Z,3.93
2018-03-12T16:11:08.590Z,4.53
2018-03-12T16:13:34.601Z,4.00
2018-03-12T16:16:00.574Z,4.30
2018-03-12T16:18:27.368Z,4.30
2018-03-12T16:20:54.209Z,4.77
2018-03-12T16:23:20.966Z,5.33
2018-03-12T16:25:46.963Z,6.13
2018-03-12T16:28:13.010Z,5.30
2018-03-12T16:30:39.000Z,4.80
2018-03-12T16:33:04.994Z,4.10
2018-03-12T16:35:30.968Z,4.00
2018-03-12T16:37:57.766Z,4.10
2018-03-12T16:40:23.793Z,5.43
2018-03-12T16:42:49.779Z,5.37
2018-03-12T16:45:16.549Z,4.97
2018-03-12T16:47:42.553Z,5.00
2018-03-12T16:50:08.562Z,5.43
2018-03-12T16:52:34.521Z,8.57
2018-03-12T16:55:00.534Z,7.07
2018-03-12T16:57:26.516Z,5.13
2018-03-12T16:59:52.586Z,5.90
2018-03-12T17:02:18.598Z,6.20
2018-03-12T17:04:45.305Z,6.43
2018-03-12T17:07:11.409Z,7.20
2018-03-12T17:09:37.379Z,8.20
2018-03-12T17:12:03.361Z,7.50
2018-03-12T17:14:30.096Z,8.83
2018-03-12T17:16:56.129Z,8.20
2018-03-12T17:19:22.172Z,21.70
2018-03-12T17:21:48.136Z,10.20
2018-03-12T17:24:14.145Z,10.40
2018-03-12T17:26:40.925Z,12.83
2018-03-12T17:29:06.918Z,11.47
2018-03-12T17:31:32.943Z,12.23
2018-03-12T17:33:58.921Z,13.30
2018-03-12T17:36:25.663Z,13.13
2018-03-12T17:38:52.418Z,13.10
2018-03-12T17:41:19.138Z,12.93
2018-03-12T17:43:45.166Z,10.30
2018-03-12T17:46:11.153Z,14.37
2018-03-12T17:48:37.138Z,12.63
2018-03-12T17:51:03.253Z,14.00
2018-03-12T17:53:29.290Z,16.90
2018-03-12T17:55:55.261Z,13.97
2018-03-12T17:58:21.301Z,13.03
2018-03-12T18:00:54.361Z,14.20
2018-03-12T18:03:20.399Z,13.40
2018-03-12T18:05:47.106Z,14.23
2018-03-12T18:08:13.185Z,13.63
2018-03-12T18:10:39.169Z,15.77
2018-03-12T18:13:05.206Z,15.90
2018-03-12T18:15:31.290Z,16.60
2018-03-12T18:17:57.310Z,12.73
2018-03-12T18:20:23.357Z,12.70
2018-03-12T18:22:49.458Z,10.67
2018-03-12T18:25:15.438Z,11.70
2018-03-12T18:27:41.401Z,9.60
2018-03-12T18:30:07.399Z,7.70
2018-03-12T18:32:41.126Z,9.90
2018-03-12T18:35:07.078Z,7.23
2018-03-12T18:37:33.098Z,7.07
2018-03-12T18:39:59.174Z,6.30
2018-03-12T18:42:25.124Z,5.33
2018-03-12T18:44:51.141Z,6.03
2018-03-12T18:47:17.130Z,5.30
2018-03-12T18:49:43.840Z,5.00
2018-03-12T18:52:09.858Z,6.57
2018-03-12T18:54:36.149Z,6.77
2018-03-12T18:57:02.261Z,6.80
2018-03-12T18:59:28.343Z,6.77
2018-03-12T19:01:54.346Z,6.33
2018-03-12T19:04:20.327Z,7.23
2018-03-12T19:06:46.361Z,8.07
2018-03-12T19:09:13.065Z,8.37
2018-03-12T19:11:39.086Z,8.07
2018-03-12T19:14:05.070Z,7.70
2018-03-12T19:16:31.816Z,8.33
2018-03-12T19:18:58.550Z,8.60
2018-03-12T19:21:24.586Z,8.47
2018-03-12T19:23:50.558Z,8.50
2018-03-12T19:26:16.541Z,10.60
2018-03-12T19:28:42.565Z,8.90
2018-03-12T19:31:08.605Z,8.23
2018-03-12T19:33:34.595Z,9.00
2018-03-12T19:36:01.317Z,8.67
2018-03-12T19:38:27.281Z,7.97
2018-03-12T19:40:54.017Z,8.20
2018-03-12T19:43:19.994Z,8.00
2018-03-12T19:45:45.995Z,9.27
2018-03-12T19:48:12.019Z,7.87
2018-03-12T19:50:38.005Z,7.97
2018-03-12T19:53:04.040Z,8.10
2018-03-12T19:55:30.075Z,8.33
2018-03-12T19:57:56.095Z,8.30
2018-03-12T20:00:22.802Z,8.37
2018-03-12T20:02:48.821Z,8.03
2018-03-12T20:05:14.773Z,7.70
2018-03-12T20:07:40.825Z,7.87
2018-03-12T20:10:09.847Z,7.50
2018-03-12T20:12:37.659Z,8.20
2018-03-12T20:15:04.221Z,7.70
2018-03-12T20:17:30.197Z,8.73
2018-03-12T20:20:03.107Z,7.77
2018-03-12T20:22:29.077Z,7.20
2018-03-12T20:24:55.078Z,7.90
2018-03-12T20:27:21.126Z,8.40
2018-03-12T20:29:47.869Z,7.40
2018-03-12T20:32:20.891Z,7.77
2018-03-12T20:34:47.646Z,7.50
2018-03-12T20:37:14.402Z,7.20
2018-03-12T20:39:41.158Z,6.63
2018-03-12T20:42:07.161Z,6.90
2018-03-12T20:44:33.128Z,6.37
2018-03-12T20:46:59.919Z,6.80
2018-03-12T20:49:25.842Z,7.70
2018-03-12T20:51:51.866Z,7.40
2018-03-12T20:54:17.814Z,7.33
2018-03-12T20:56:43.825Z,6.50
2018-03-12T20:59:10.673Z,5.83
2018-03-12T21:01:36.758Z,6.30
2018-03-12T21:04:02.747Z,6.50
2018-03-12T21:06:29.451Z,5.70
2018-03-12T21:08:55.433Z,5.90
2018-03-12T21:11:22.166Z,5.37
2018-03-12T21:13:48.178Z,5.90
2018-03-12T21:16:14.177Z,6.00
2018-03-12T21:18:40.231Z,5.43
2018-03-12T21:21:06.229Z,5.17
2018-03-12T21:23:32.933Z,5.13
2018-03-12T21:25:58.912Z,5.70
2018-03-12T21:28:25.682Z,4.57
2018-03-12T21:30:52.426Z,5.50
2018-03-12T21:33:18.394Z,5.47
2018-03-12T21:35:44.382Z,5.40
2018-03-12T21:38:10.461Z,5.30
2018-03-12T21:40:36.445Z,5.30
2018-03-12T21:43:02.454Z,6.30
2018-03-12T21:45:28.476Z,5.13
2018-03-12T21:47:54.456Z,5.43
2018-03-12T21:50:20.470Z,5.60
2018-03-12T21:52:46.462Z,5.20
2018-03-12T21:55:13.234Z,5.83
2018-03-12T21:57:39.269Z,5.97
2018-03-12T22:00:05.213Z,6.03
2018-03-12T22:02:31.209Z,7.37
2018-03-12T22:04:57.176Z,6.23
2018-03-12T22:07:23.929Z,5.97
2018-03-12T22:09:49.950Z,5.60
2018-03-12T22:12:16.680Z,5.10
2018-03-12T22:14:42.713Z,5.10
2018-03-12T22:17:08.777Z,4.90
2018-03-12T22:19:34.787Z,5.50
2018-03-12T22:22:00.837Z,4.87
2018-03-12T22:24:28.315Z,5.40
2018-03-12T22:26:54.386Z,4.80
2018-03-12T22:29:21.077Z,4.70
2018-03-12T22:31:47.029Z,4.80
2018-03-12T22:34:13.057Z,3.70
2018-03-12T22:36:39.054Z,4.57
2018-03-12T22:39:05.079Z,4.07
2018-03-12T22:41:31.047Z,3.97
2018-03-12T22:43:57.068Z,3.40
2018-03-12T22:46:23.061Z,3.73
2018-03-12T22:48:49.018Z,3.60
2018-03-12T22:51:15.015Z,3.33
2018-03-12T22:53:41.729Z,3.87
2018-03-12T22:56:07.717Z,3.80
2018-03-12T22:58:33.708Z,3.40
2018-03-12T23:00:59.734Z,2.97
2018-03-12T23:03:25.741Z,3.13
2018-03-12T23:05:52.486Z,3.63
2018-03-12T23:08:18.447Z,2.90
2018-03-12T23:10:45.194Z,2.63
2018-03-12T23:13:11.941Z,3.20
2018-03-12T23:15:37.940Z,2.67
2018-03-12T23:18:03.940Z,2.70
2018-03-12T23:20:29.927Z,2.60
2018-03-12T23:22:55.920Z,2.10
2018-03-12T23:25:21.918Z,3.23
2018-03-12T23:27:48.645Z,2.43
2018-03-12T23:30:14.654Z,2.17
2018-03-12T23:32:40.654Z,2.50
2018-03-12T23:35:06.654Z,3.30
2018-03-12T23:37:32.677Z,2.27
2018-03-12T23:39:58.677Z,2.97
2018-03-12T23:42:24.674Z,2.60
2018-03-12T23:44:50.640Z,2.40
2018-03-12T23:47:16.593Z,2.40
2018-03-12T23:49:42.594Z,2.10
2018-03-12T23:52:08.729Z,2.13
2018-03-12T23:54:38.410Z,2.27
2018-03-12T23:57:04.369Z,1.90
2018-03-12T23:59:30.414Z,2.10
